Time;durP1;ratioP1;P1;durP2;ratioP2;P2;SDS_P1;SDS_P2;PMS_P1;PMS_P2;Temp;Humidity;BMP_temperature;BMP_pressure;BME280_temperature;BME280_humidity;BME280_pressure;Samples;Min_cycle;Max_cycle;Signal;HPM_P1;HPM_P2
2021/06/05 00:01:06;;;;;;;31.63;25.67;;;;;;;;;;5044757;28;39845;-78
2021/06/05 00:03:33;;;;;;;30.30;24.33;;;;;;;;;;5049910;28;39344;-77
2021/06/05 00:06:00;;;;;;;33.30;29.35;;;;;;;;;;5047765;28;39191;-79
2021/06/05 00:08:28;;;;;;;30.67;25.52;;;;;;;;;;5066675;28;46606;-77
2021/06/05 00:10:56;;;;;;;35.55;27.45;;;;;;;;;;5054714;28;38966;-76
2021/06/05 00:13:30;;;;;;;38.13;27.15;;;;;;;;;;5054029;28;39390;-77
2021/06/05 00:15:57;;;;;;;31.77;26.40;;;;;;;;;;5046347;28;39585;-76
2021/06/05 00:18:24;;;;;;;35.80;27.02;;;;;;;;;;5034636;28;38756;-76
2021/06/05 00:20:50;;;;;;;35.20;29.00;;;;;;;;;;5034313;28;39332;-76
2021/06/05 00:23:18;;;;;;;37.10;29.08;;;;;;;;;;5034272;28;38853;-76
2021/06/05 00:25:45;;;;;;;34.08;27.05;;;;;;;;;;5032793;28;38670;-79
2021/06/05 00:28:12;;;;;;;32.88;26.92;;;;;;;;;;5031586;28;38262;-79
2021/06/05 00:30:38;;;;;;;30.05;26.73;;;;;;;;;;5053532;28;40615;-77
2021/06/05 00:33:05;;;;;;;39.20;28.33;;;;;;;;;;5048805;28;39387;-77
2021/06/05 00:35:33;;;;;;;32.55;26.25;;;;;;;;;;5046575;28;39701;-77
2021/06/05 00:37:59;;;;;;;33.72;24.88;;;;;;;;;;5047495;28;38015;-77
2021/06/05 00:40:28;;;;;;;27.33;24.20;;;;;;;;;;5048152;28;39097;-77
2021/06/05 00:42:56;;;;;;;29.63;24.90;;;;;;;;;;5060043;28;39337;-77
2021/06/05 00:45:23;;;;;;;30.55;24.52;;;;;;;;;;5081592;27;38144;-77
2021/06/05 00:47:49;;;;;;;30.88;24.75;;;;;;;;;;5063690;27;36668;-78
2021/06/05 00:50:16;;;;;;;27.27;24.35;;;;;;;;;;5056952;28;39003;-78
2021/06/05 00:52:44;;;;;;;30.80;27.52;;;;;;;;;;5048142;28;38621;-76
2021/06/05 00:55:11;;;;;;;30.50;27.20;;;;;;;;;;5044113;28;38604;-79
2021/06/05 00:57:38;;;;;;;32.92;29.40;;;;;;;;;;5047945;28;37889;-77
2021/06/05 01:00:09;;;;;;;34.55;29.30;;;;;;;;;;5048341;28;38482;-78
2021/06/05 01:02:36;;;;;;;34.00;28.67;;;;;;;;;;5045566;28;47576;-79
2021/06/05 01:05:03;;;;;;;33.88;30.08;;;;;;;;;;5046185;28;38696;-78
2021/06/05 01:07:31;;;;;;;35.17;29.70;;;;;;;;;;5045938;28;38606;-78
2021/06/05 01:10:17;;;;;;;34.42;30.75;;;;;;;;;;5048282;28;39898;-78
2021/06/05 01:12:43;;;;;;;37.13;32.00;;;;;;;;;;5041850;28;48609;-78
2021/06/05 01:15:15;;;;;;;36.70;32.80;;;;;;;;;;5045801;28;38224;-78
2021/06/05 01:17:43;;;;;;;36.45;32.63;;;;;;;;;;5047891;28;39265;-78
2021/06/05 01:20:12;;;;;;;33.25;29.80;;;;;;;;;;5052261;27;39629;-78
2021/06/05 01:22:57;;;;;;;39.08;32.45;;;;;;;;;;5068430;27;38266;-78
2021/06/05 01:25:35;;;;;;;39.70;35.42;;;;;;;;;;5047261;27;39225;-78
2021/06/05 01:28:20;;;;;;;37.90;33.60;;;;;;;;;;5048245;28;37710;-78
2021/06/05 01:30:49;;;;;;;38.22;33.33;;;;;;;;;;5047231;28;38678;-77
2021/06/05 01:33:18;;;;;;;35.35;30.65;;;;;;;;;;5044400;28;40071;-78
2021/06/05 01:35:44;;;;;;;40.17;34.08;;;;;;;;;;5046570;28;39304;-77
2021/06/05 01:38:12;;;;;;;38.08;33.05;;;;;;;;;;5047107;28;38654;-78
2021/06/05 01:40:38;;;;;;;38.72;34.50;;;;;;;;;;5042262;28;39372;-77
2021/06/05 01:43:06;;;;;;;38.95;32.88;;;;;;;;;;5062231;27;39242;-78
2021/06/05 01:45:35;;;;;;;36.67;32.00;;;;;;;;;;5083957;27;37374;-78
2021/06/05 01:48:02;;;;;;;35.17;29.25;;;;;;;;;;5066497;27;37953;-78
2021/06/05 01:50:31;;;;;;;37.55;31.88;;;;;;;;;;5066315;27;37884;-78
2021/06/05 01:53:01;;;;;;;34.25;30.15;;;;;;;;;;5067120;28;39700;-78
2021/06/05 01:55:40;;;;;;;35.95;31.10;;;;;;;;;;5064277;27;47052;-78
2021/06/05 01:58:13;;;;;;;35.58;30.30;;;;;;;;;;5059625;27;38106;-77
2021/06/05 02:00:41;;;;;;;35.42;31.60;;;;;;;;;;5044662;28;40697;-78
2021/06/05 02:03:08;;;;;;;37.40;30.20;;;;;;;;;;5045622;28;39338;-78
2021/06/05 02:05:34;;;;;;;42.28;33.80;;;;;;;;;;5046633;28;38340;-79
2021/06/05 02:08:01;;;;;;;37.65;32.85;;;;;;;;;;5046586;28;37168;-78
2021/06/05 02:10:28;;;;;;;38.38;33.63;;;;;;;;;;5050075;28;47352;-78
2021/06/05 02:12:55;;;;;;;37.80;31.67;;;;;;;;;;5047061;28;37974;-78
2021/06/05 02:15:27;;;;;;;40.60;36.20;;;;;;;;;;5033995;28;38506;-78
2021/06/05 02:17:54;;;;;;;40.63;34.67;;;;;;;;;;5027609;28;37389;-78
2021/06/05 02:20:27;;;;;;;36.20;31.10;;;;;;;;;;5024537;28;40981;-78
2021/06/05 02:22:54;;;;;;;40.42;34.42;;;;;;;;;;5026768;28;38450;-77
2021/06/05 02:25:23;;;;;;;37.72;32.17;;;;;;;;;;5025293;28;38263;-78
2021/06/05 02:27:51;;;;;;;40.88;34.10;;;;;;;;;;5026855;28;36286;-78
2021/06/05 02:30:18;;;;;;;37.03;31.83;;;;;;;;;;5028504;28;40492;-77
2021/06/05 02:32:45;;;;;;;40.30;33.97;;;;;;;;;;5041775;28;39330;-77
2021/06/05 02:35:15;;;;;;;37.65;32.35;;;;;;;;;;5026441;28;38787;-77
2021/06/05 02:37:41;;;;;;;37.03;32.75;;;;;;;;;;5024586;28;37989;-79
2021/06/05 02:40:10;;;;;;;40.33;35.03;;;;;;;;;;5024835;28;40542;-77
2021/06/05 02:42:38;;;;;;;36.58;32.63;;;;;;;;;;5029886;28;38320;-77
2021/06/05 02:45:07;;;;;;;40.25;34.05;;;;;;;;;;5046353;28;38799;-77
2021/06/05 02:47:33;;;;;;;49.08;37.78;;;;;;;;;;5026665;28;48664;-78
2021/06/05 02:50:01;;;;;;;42.97;35.97;;;;;;;;;;5040446;28;39504;-80
2021/06/05 02:52:29;;;;;;;41.45;34.60;;;;;;;;;;5065828;27;39005;-79
2021/06/05 02:55:16;;;;;;;38.88;33.03;;;;;;;;;;5066948;27;38968;-76
2021/06/05 02:57:43;;;;;;;46.60;37.05;;;;;;;;;;5095808;27;47264;-78
2021/06/05 03:00:16;;;;;;;39.10;33.05;;;;;;;;;;5065770;27;39396;-78
2021/06/05 03:02:42;;;;;;;;;;;;;;;;;;5067105;27;38508;-77
2021/06/05 03:05:08;;;;;;;29.35;25.10;;;;;;;;;;5065225;27;38202;-77
2021/06/05 03:07:35;;;;;;;24.45;21.88;;;;;;;;;;5063973;28;37154;-77
2021/06/05 03:10:01;;;;;;;25.63;21.33;;;;;;;;;;5067387;28;39864;-78
2021/06/05 03:12:28;;;;;;;23.30;20.90;;;;;;;;;;5067895;27;46903;-77
2021/06/05 03:14:54;;;;;;;20.30;18.15;;;;;;;;;;5068802;28;38156;-78
2021/06/05 03:17:21;;;;;;;22.88;18.50;;;;;;;;;;5068348;27;36886;-79
2021/06/05 03:19:47;;;;;;;21.90;17.48;;;;;;;;;;5067872;28;39380;-77
2021/06/05 03:22:13;;;;;;;22.13;17.80;;;;;;;;;;5067981;27;38801;-78
2021/06/05 03:24:40;;;;;;;19.50;17.42;;;;;;;;;;5049162;28;38235;-78
2021/06/05 03:27:06;;;;;;;22.30;19.25;;;;;;;;;;5045554;28;37566;-78
2021/06/05 03:29:33;;;;;;;19.52;17.10;;;;;;;;;;5049875;28;40032;-78
2021/06/05 03:31:59;;;;;;;20.38;17.13;;;;;;;;;;5047030;28;39441;-76
2021/06/05 03:34:25;;;;;;;21.42;19.27;;;;;;;;;;5048926;28;38385;-78
2021/06/05 03:36:52;;;;;;;19.67;16.45;;;;;;;;;;5048052;28;36011;-77
2021/06/05 03:39:18;;;;;;;16.35;14.70;;;;;;;;;;5047345;28;39249;-77
2021/06/05 03:41:46;;;;;;;17.75;15.38;;;;;;;;;;5048031;28;39582;-78
2021/06/05 03:44:12;;;;;;;15.32;13.63;;;;;;;;;;5084331;27;39754;-78
2021/06/05 03:46:39;;;;;;;18.20;16.23;;;;;;;;;;5074445;27;37290;-78
2021/06/05 03:49:06;;;;;;;18.10;16.20;;;;;;;;;;5068619;27;39125;-78
2021/06/05 03:51:32;;;;;;;18.67;16.83;;;;;;;;;;5069476;27;38770;-77
2021/06/05 03:53:59;;;;;;;18.17;16.45;;;;;;;;;;5069933;27;38603;-77
2021/06/05 03:56:25;;;;;;;24.42;21.83;;;;;;;;;;5067599;27;37205;-78
2021/06/05 03:58:52;;;;;;;22.52;20.25;;;;;;;;;;5067761;28;40443;-78
2021/06/05 04:01:21;;;;;;;23.45;20.77;;;;;;;;;;5065579;27;40125;-78
2021/06/05 04:03:47;;;;;;;25.30;21.27;;;;;;;;;;5068058;28;38763;-78
2021/06/05 04:06:19;;;;;;;22.35;19.70;;;;;;;;;;5066321;27;37464;-78
2021/06/05 04:08:45;;;;;;;22.25;19.95;;;;;;;;;;5067056;28;39827;-78
2021/06/05 04:11:12;;;;;;;20.95;18.73;;;;;;;;;;5068323;27;38607;-79
2021/06/05 04:13:38;;;;;;;25.05;22.45;;;;;;;;;;5066718;28;39011;-78
2021/06/05 04:16:05;;;;;;;25.98;23.38;;;;;;;;;;5066686;27;37249;-78
2021/06/05 04:18:34;;;;;;;25.88;23.15;;;;;;;;;;5069076;27;39016;-78
2021/06/05 04:21:01;;;;;;;25.30;20.80;;;;;;;;;;5068015;27;39348;-79
2021/06/05 04:23:27;;;;;;;25.17;21.88;;;;;;;;;;5051779;28;47218;-79
2021/06/05 04:25:54;;;;;;;24.50;22.00;;;;;;;;;;5027212;28;38208;-78
2021/06/05 04:28:21;;;;;;;25.25;22.63;;;;;;;;;;5027111;28;39437;-78
2021/06/05 04:30:48;;;;;;;25.05;21.88;;;;;;;;;;5027732;28;38847;-78
2021/06/05 04:33:15;;;;;;;27.08;24.02;;;;;;;;;;5028089;28;38947;-79
2021/06/05 04:35:42;;;;;;;21.70;19.52;;;;;;;;;;5026872;28;37869;-79
2021/06/05 04:38:09;;;;;;;22.80;20.42;;;;;;;;;;5026796;28;39562;-78
2021/06/05 04:40:36;;;;;;;23.50;21.25;;;;;;;;;;5031548;28;39058;-79
2021/06/05 04:43:03;;;;;;;23.45;20.92;;;;;;;;;;5044759;28;39970;-77
2021/06/05 04:45:30;;;;;;;26.08;21.70;;;;;;;;;;5047236;28;37343;-78
2021/06/05 04:47:56;;;;;;;22.75;20.38;;;;;;;;;;5054316;28;39332;-78
2021/06/05 04:50:24;;;;;;;25.55;23.13;;;;;;;;;;5067963;27;38602;-78
2021/06/05 04:52:51;;;;;;;25.25;22.52;;;;;;;;;;5069579;28;38992;-78
2021/06/05 04:55:17;;;;;;;23.48;21.05;;;;;;;;;;5065457;27;37671;-78
2021/06/05 04:57:44;;;;;;;23.85;21.23;;;;;;;;;;5067424;28;39086;-79
2021/06/05 05:00:13;;;;;;;22.02;19.77;;;;;;;;;;5067399;27;38882;-78
2021/06/05 05:02:40;;;;;;;19.55;17.55;;;;;;;;;;5066660;28;38864;-77
2021/06/05 05:05:06;;;;;;;21.75;19.63;;;;;;;;;;5065393;28;37249;-77
2021/06/05 05:07:33;;;;;;;19.20;17.42;;;;;;;;;;5066672;28;39806;-78
2021/06/05 05:09:59;;;;;;;19.95;17.83;;;;;;;;;;5067120;28;39110;-77
2021/06/05 05:12:26;;;;;;;21.48;19.17;;;;;;;;;;5052183;28;39473;-78
2021/06/05 05:14:54;;;;;;;24.35;21.52;;;;;;;;;;5046737;28;38508;-78
2021/06/05 05:17:21;;;;;;;20.83;18.83;;;;;;;;;;5054200;27;39042;-78
2021/06/05 05:19:48;;;;;;;20.85;18.88;;;;;;;;;;5046715;28;39137;-78
2021/06/05 05:22:14;;;;;;;22.45;20.25;;;;;;;;;;5037638;28;39096;-79
2021/06/05 05:24:40;;;;;;;26.27;22.13;;;;;;;;;;5045777;28;38060;-78
2021/06/05 05:27:07;;;;;;;24.77;22.13;;;;;;;;;;5045167;28;39381;-78
2021/06/05 05:29:36;;;;;;;23.00;19.30;;;;;;;;;;5060057;28;39399;-79
2021/06/05 05:32:02;;;;;;;23.38;20.90;;;;;;;;;;5065658;27;38478;-79
2021/06/05 05:34:29;;;;;;;24.17;19.30;;;;;;;;;;5066917;28;37454;-79
2021/06/05 05:36:55;;;;;;;19.58;17.60;;;;;;;;;;5067503;27;38704;-77
2021/06/05 05:39:22;;;;;;;19.75;17.80;;;;;;;;;;5054474;28;38895;-79
2021/06/05 05:41:49;;;;;;;19.80;17.70;;;;;;;;;;5046257;28;38979;-78
2021/06/05 05:44:16;;;;;;;16.27;14.63;;;;;;;;;;5083200;27;37333;-78
2021/06/05 05:46:42;;;;;;;17.42;14.25;;;;;;;;;;5063853;27;40296;-78
2021/06/05 05:49:10;;;;;;;15.80;14.20;;;;;;;;;;5068250;28;38787;-77
2021/06/05 05:51:36;;;;;;;16.90;15.05;;;;;;;;;;5068243;28;39055;-78
2021/06/05 05:54:03;;;;;;;13.85;12.55;;;;;;;;;;5069763;27;35560;-78
2021/06/05 05:56:33;;;;;;;13.38;12.15;;;;;;;;;;5057351;28;38986;-78
2021/06/05 05:59:00;;;;;;;12.95;10.63;;;;;;;;;;5053531;28;38470;-78
2021/06/05 06:01:27;;;;;;;12.85;11.55;;;;;;;;;;5050813;28;37832;-79
2021/06/05 06:03:55;;;;;;;11.10;10.10;;;;;;;;;;5049745;28;36219;-77
2021/06/05 06:06:22;;;;;;;11.35;10.18;;;;;;;;;;5049644;28;38934;-78
2021/06/05 06:08:49;;;;;;;10.93;9.68;;;;;;;;;;5051447;28;39497;-77
2021/06/05 06:11:15;;;;;;;9.65;8.80;;;;;;;;;;5047384;28;38397;-78
2021/06/05 06:13:42;;;;;;;10.25;9.10;;;;;;;;;;5046794;28;36060;-77
2021/06/05 06:16:09;;;;;;;9.43;8.52;;;;;;;;;;5047331;28;39696;-77
2021/06/05 06:18:36;;;;;;;9.25;7.68;;;;;;;;;;5047590;28;39562;-77
2021/06/05 06:21:04;;;;;;;9.30;8.40;;;;;;;;;;5062447;27;38053;-78
2021/06/05 06:23:32;;;;;;;8.88;8.07;;;;;;;;;;5067308;27;37797;-78
2021/06/05 06:26:01;;;;;;;7.57;6.78;;;;;;;;;;5066364;27;39429;-78
2021/06/05 06:28:29;;;;;;;11.60;9.05;;;;;;;;;;5065774;27;47455;-77
2021/06/05 06:30:55;;;;;;;11.05;7.22;;;;;;;;;;5063818;28;36681;-77
2021/06/05 06:33:23;;;;;;;8.13;7.43;;;;;;;;;;5065282;27;37235;-77
2021/06/05 06:35:50;;;;;;;7.95;7.18;;;;;;;;;;5065483;28;39397;-78
2021/06/05 06:38:20;;;;;;;8.40;6.72;;;;;;;;;;5064307;28;39364;-78
2021/06/05 06:40:46;;;;;;;8.30;6.90;;;;;;;;;;5065741;27;39457;-77
2021/06/05 06:43:15;;;;;;;7.60;6.90;;;;;;;;;;5074351;27;37002;-79
2021/06/05 06:45:42;;;;;;;8.13;7.43;;;;;;;;;;5080393;27;39218;-79
2021/06/05 06:48:08;;;;;;;8.55;7.72;;;;;;;;;;5066456;27;38249;-77
2021/06/05 06:50:35;;;;;;;8.85;7.50;;;;;;;;;;5063510;28;38246;-78
2021/06/05 06:53:01;;;;;;;8.10;7.40;;;;;;;;;;5066049;28;37236;-77
2021/06/05 06:55:28;;;;;;;9.27;8.18;;;;;;;;;;5065757;27;49072;-78
2021/06/05 06:57:54;;;;;;;8.88;7.97;;;;;;;;;;5065690;27;39691;-78
2021/06/05 07:00:26;;;;;;;10.52;8.75;;;;;;;;;;5062579;27;38598;-78
2021/06/05 07:02:53;;;;;;;8.27;7.30;;;;;;;;;;5066101;28;38328;-79
2021/06/05 07:05:20;;;;;;;10.10;7.80;;;;;;;;;;5047953;27;39709;-79
2021/06/05 07:07:47;;;;;;;8.05;7.32;;;;;;;;;;5044700;28;39529;-78
2021/06/05 07:10:14;;;;;;;10.00;8.50;;;;;;;;;;5052432;27;38862;-78
2021/06/05 07:12:40;;;;;;;10.80;8.43;;;;;;;;;;5066248;27;36835;-80
2021/06/05 07:15:07;;;;;;;13.18;10.07;;;;;;;;;;5064360;27;39947;-79
2021/06/05 07:17:33;;;;;;;8.77;7.97;;;;;;;;;;5064884;28;39840;-80
2021/06/05 07:20:00;;;;;;;8.70;7.80;;;;;;;;;;5064768;28;38067;-78
2021/06/05 07:22:26;;;;;;;12.38;8.90;;;;;;;;;;5045365;28;37235;-78
2021/06/05 07:24:53;;;;;;;10.48;8.55;;;;;;;;;;5045424;28;39061;-78
2021/06/05 07:27:19;;;;;;;12.18;8.82;;;;;;;;;;5042313;28;40338;-78
2021/06/05 07:29:45;;;;;;;11.80;9.18;;;;;;;;;;5046475;28;38201;-78
2021/06/05 07:32:12;;;;;;;11.70;10.48;;;;;;;;;;5042034;28;37055;-78
2021/06/05 07:34:38;;;;;;;11.57;9.88;;;;;;;;;;5044794;28;39536;-77
2021/06/05 07:37:07;;;;;;;12.13;9.98;;;;;;;;;;5042953;28;37123;-78
2021/06/05 07:39:34;;;;;;;14.50;11.63;;;;;;;;;;5045500;28;39156;-78
2021/06/05 07:42:00;;;;;;;14.10;11.25;;;;;;;;;;5043622;28;37796;-77
2021/06/05 07:44:28;;;;;;;17.67;12.77;;;;;;;;;;5083889;27;47306;-77
2021/06/05 07:46:57;;;;;;;12.63;10.95;;;;;;;;;;5068177;27;39250;-77
2021/06/05 07:49:31;;;;;;;11.57;10.40;;;;;;;;;;5064482;27;37937;-78
2021/06/05 07:51:58;;;;;;;12.45;11.15;;;;;;;;;;5065010;27;36838;-78
2021/06/05 07:54:24;;;;;;;14.80;13.00;;;;;;;;;;5062186;27;40358;-77
2021/06/05 07:56:51;;;;;;;12.60;11.32;;;;;;;;;;5047725;28;38597;-78
2021/06/05 07:59:18;;;;;;;17.10;12.38;;;;;;;;;;5054448;27;38506;-78
2021/06/05 08:01:45;;;;;;;12.27;10.95;;;;;;;;;;5068795;27;37819;-78
2021/06/05 08:04:11;;;;;;;13.30;11.88;;;;;;;;;;5066928;27;39273;-78
2021/06/05 08:06:38;;;;;;;12.10;9.02;;;;;;;;;;5066216;28;39208;-77
2021/06/05 08:09:05;;;;;;;10.50;8.90;;;;;;;;;;5069204;27;37975;-77
2021/06/05 08:11:31;;;;;;;8.60;7.63;;;;;;;;;;5063944;28;37103;-77
2021/06/05 08:13:58;;;;;;;9.80;6.85;;;;;;;;;;5048451;28;39975;-77
2021/06/05 08:16:24;;;;;;;10.45;7.50;;;;;;;;;;5046606;28;39807;-77
2021/06/05 08:18:51;;;;;;;8.85;6.97;;;;;;;;;;5046521;28;38663;-78
2021/06/05 08:21:18;;;;;;;7.82;7.10;;;;;;;;;;5045870;28;37788;-77
2021/06/05 08:23:44;;;;;;;7.88;7.07;;;;;;;;;;5049729;28;39681;-77
2021/06/05 08:26:12;;;;;;;12.98;6.32;;;;;;;;;;5047982;28;38654;-78
2021/06/05 08:28:39;;;;;;;6.00;5.40;;;;;;;;;;5051116;28;38775;-79
2021/06/05 08:31:07;;;;;;;7.63;6.93;;;;;;;;;;5068239;27;37012;-79
2021/06/05 08:33:34;;;;;;;7.90;6.35;;;;;;;;;;5069144;27;38501;-78
2021/06/05 08:36:00;;;;;;;11.88;7.60;;;;;;;;;;5066396;28;39211;-77
2021/06/05 08:38:27;;;;;;;7.82;5.85;;;;;;;;;;5067448;27;47362;-78
2021/06/05 08:41:02;;;;;;;7.57;6.75;;;;;;;;;;5067895;27;37681;-78
2021/06/05 08:43:35;;;;;;;11.73;8.10;;;;;;;;;;5079198;27;48360;-78
2021/06/05 08:46:03;;;;;;;11.15;8.45;;;;;;;;;;5066199;27;38757;-78
2021/06/05 08:48:30;;;;;;;10.25;8.38;;;;;;;;;;5084722;27;38120;-78
2021/06/05 08:51:16;;;;;;;8.15;7.03;;;;;;;;;;5066257;28;38853;-78
2021/06/05 08:53:43;;;;;;;8.32;7.03;;;;;;;;;;5024386;28;48865;-78
2021/06/05 08:56:13;;;;;;;7.63;6.80;;;;;;;;;;5066654;27;39163;-78
2021/06/05 08:58:41;;;;;;;9.98;8.02;;;;;;;;;;5066690;28;38313;-78
2021/06/05 09:01:07;;;;;;;9.35;8.38;;;;;;;;;;5067268;27;37366;-78
2021/06/05 09:03:35;;;;;;;14.30;9.70;;;;;;;;;;5054546;28;40958;-77
2021/06/05 09:06:05;;;;;;;11.95;9.57;;;;;;;;;;5046306;28;39080;-77
2021/06/05 09:08:31;;;;;;;14.93;11.57;;;;;;;;;;5035159;28;38451;-79
2021/06/05 09:10:59;;;;;;;12.85;11.32;;;;;;;;;;5025213;28;37787;-78
2021/06/05 09:13:25;;;;;;;15.75;12.20;;;;;;;;;;5027952;28;38829;-78
2021/06/05 09:16:12;;;;;;;18.42;14.50;;;;;;;;;;5024639;28;39134;-78
2021/06/05 09:18:47;;;;;;;18.65;14.23;;;;;;;;;;5044730;28;48238;-78
2021/06/05 09:21:23;;;;;;;18.95;15.88;;;;;;;;;;5053856;27;38551;-76
2021/06/05 09:23:49;;;;;;;18.77;15.05;;;;;;;;;;5067140;27;40026;-78
2021/06/05 09:26:21;;;;;;;17.00;15.15;;;;;;;;;;5066775;27;39365;-78
2021/06/05 09:28:47;;;;;;;16.45;14.23;;;;;;;;;;5068162;27;38061;-77
2021/06/05 09:31:14;;;;;;;17.80;13.52;;;;;;;;;;5067229;27;37500;-78
2021/06/05 09:33:41;;;;;;;15.40;13.48;;;;;;;;;;5069025;27;41341;-77
2021/06/05 09:36:25;;;;;;;15.23;12.00;;;;;;;;;;5065352;27;39418;-77
2021/06/05 09:38:56;;;;;;;15.90;11.82;;;;;;;;;;5066363;28;42128;-78
2021/06/05 09:41:26;;;;;;;10.73;9.57;;;;;;;;;;5065654;28;38546;-77
2021/06/05 09:43:53;;;;;;;10.48;9.27;;;;;;;;;;5082677;28;40001;-78
2021/06/05 09:46:20;;;;;;;10.43;8.65;;;;;;;;;;5066796;27;39164;-78
2021/06/05 09:48:47;;;;;;;8.98;7.88;;;;;;;;;;5067836;27;39355;-78
2021/06/05 09:51:29;;;;;;;9.55;8.43;;;;;;;;;;5065306;27;37748;-79
2021/06/05 09:53:57;;;;;;;10.27;8.13;;;;;;;;;;5059733;28;41285;-77
2021/06/05 09:56:26;;;;;;;11.57;8.15;;;;;;;;;;5046350;28;38824;-79
2021/06/05 09:59:04;;;;;;;9.77;7.90;;;;;;;;;;5047181;28;38215;-78
2021/06/05 10:01:32;;;;;;;15.57;9.43;;;;;;;;;;5045165;28;49436;-79
2021/06/05 10:04:18;;;;;;;11.77;10.00;;;;;;;;;;5046397;28;40138;-80
2021/06/05 10:06:58;;;;;;;13.57;10.35;;;;;;;;;;5045748;28;49215;-77
2021/06/05 10:09:27;;;;;;;13.50;10.90;;;;;;;;;;5047540;28;38408;-76
2021/06/05 10:12:02;;;;;;;14.20;10.85;;;;;;;;;;5059833;27;37112;-78
2021/06/05 10:14:43;;;;;;;19.23;13.02;;;;;;;;;;5064844;28;47336;-78
2021/06/05 10:17:25;;;;;;;19.30;14.20;;;;;;;;;;5065518;27;39331;-77
2021/06/05 10:19:54;;;;;;;17.10;12.82;;;;;;;;;;5061612;28;39686;-77
2021/06/05 10:22:23;;;;;;;20.15;15.88;;;;;;;;;;5046400;28;37180;-78
2021/06/05 10:25:01;;;;;;;21.08;16.63;;;;;;;;;;5046880;28;38912;-79
2021/06/05 10:27:30;;;;;;;21.35;15.60;;;;;;;;;;5043617;28;47296;-78
2021/06/05 10:30:04;;;;;;;20.40;14.95;;;;;;;;;;5057234;27;38480;-77
2021/06/05 10:32:32;;;;;;;20.20;16.63;;;;;;;;;;5065871;27;48979;-77
2021/06/05 10:35:02;;;;;;;26.55;15.98;;;;;;;;;;5064742;28;39557;-77
2021/06/05 10:37:30;;;;;;;17.30;14.70;;;;;;;;;;5066251;27;48740;-77
2021/06/05 10:39:57;;;;;;;14.20;12.75;;;;;;;;;;5065255;28;39819;-77
2021/06/05 10:42:26;;;;;;;17.13;14.00;;;;;;;;;;5065123;27;38215;-78
2021/06/05 10:44:53;;;;;;;16.88;15.07;;;;;;;;;;5074945;27;40312;-78
2021/06/05 10:47:27;;;;;;;18.90;14.73;;;;;;;;;;5063869;27;39008;-78
2021/06/05 10:49:53;;;;;;;20.52;16.50;;;;;;;;;;5064704;28;38571;-77
2021/06/05 10:52:32;;;;;;;17.58;15.10;;;;;;;;;;5064395;27;38968;-77
2021/06/05 10:55:18;;;;;;;20.80;15.68;;;;;;;;;;5066387;27;39815;-78
2021/06/05 10:57:48;;;;;;;20.33;16.13;;;;;;;;;;5055906;28;47511;-78
2021/06/05 11:00:24;;;;;;;20.95;17.15;;;;;;;;;;5066099;27;38954;-78
2021/06/05 11:02:55;;;;;;;18.10;15.18;;;;;;;;;;5052680;27;36881;-77
2021/06/05 11:05:41;;;;;;;18.70;14.90;;;;;;;;;;5046313;28;38769;-77
2021/06/05 11:08:11;;;;;;;21.02;15.50;;;;;;;;;;5047118;28;39307;-76
2021/06/05 11:10:43;;;;;;;19.20;15.07;;;;;;;;;;5046239;28;39334;-77
2021/06/05 11:13:10;;;;;;;18.63;15.68;;;;;;;;;;5046417;28;36782;-77
2021/06/05 11:15:51;;;;;;;21.42;15.43;;;;;;;;;;5046616;28;39021;-77
2021/06/05 11:18:43;;;;;;;22.23;16.20;;;;;;;;;;5048039;28;39619;-78
2021/06/05 11:21:26;;;;;;;26.30;18.48;;;;;;;;;;5043681;28;38585;-78
2021/06/05 11:24:13;;;;;;;21.83;17.23;;;;;;;;;;5044040;28;37509;-77
2021/06/05 11:26:44;;;;;;;22.90;16.35;;;;;;;;;;5023602;28;46403;-77
2021/06/05 11:29:19;;;;;;;18.70;15.88;;;;;;;;;;5032870;28;38669;-78
2021/06/05 11:31:49;;;;;;;17.27;13.15;;;;;;;;;;5027581;28;39191;-79
2021/06/05 11:34:36;;;;;;;13.10;11.77;;;;;;;;;;5028380;28;37498;-78
2021/06/05 11:37:15;;;;;;;13.73;12.13;;;;;;;;;;5039164;28;39495;-78
2021/06/05 11:39:44;;;;;;;14.60;11.23;;;;;;;;;;5061616;28;38902;-78
2021/06/05 11:42:31;;;;;;;12.20;10.90;;;;;;;;;;5042964;28;36935;-77
2021/06/05 11:44:57;;;;;;;12.43;11.00;;;;;;;;;;5040529;28;36271;-76
2021/06/05 11:47:23;;;;;;;12.40;9.23;;;;;;;;;;5051125;28;38582;-76
2021/06/05 11:50:02;;;;;;;9.65;8.65;;;;;;;;;;5069685;27;38416;-78
2021/06/05 11:52:32;;;;;;;10.05;8.50;;;;;;;;;;5064619;28;38113;-77
2021/06/05 11:55:02;;;;;;;9.25;7.63;;;;;;;;;;5068052;28;36149;-77
2021/06/05 11:57:33;;;;;;;8.25;7.10;;;;;;;;;;5067551;27;48157;-77
2021/06/05 12:00:07;;;;;;;8.73;7.32;;;;;;;;;;5067534;28;37658;-77
2021/06/05 12:02:36;;;;;;;9.82;8.35;;;;;;;;;;5066579;28;47502;-78
2021/06/05 12:05:06;;;;;;;11.60;8.43;;;;;;;;;;5066839;27;36609;-78
2021/06/05 12:07:34;;;;;;;10.88;8.38;;;;;;;;;;5061067;28;47336;-77
2021/06/05 12:10:00;;;;;;;11.68;9.23;;;;;;;;;;5068415;27;38586;-78
2021/06/05 12:12:29;;;;;;;15.35;10.95;;;;;;;;;;5066165;28;46973;-77
2021/06/05 12:15:04;;;;;;;12.98;11.30;;;;;;;;;;5068969;27;37125;-78
2021/06/05 12:17:36;;;;;;;13.45;12.02;;;;;;;;;;5066628;28;47116;-77
2021/06/05 12:20:05;;;;;;;14.43;11.32;;;;;;;;;;5063138;28;37655;-77
2021/06/05 12:22:32;;;;;;;14.85;11.02;;;;;;;;;;5047984;28;49181;-78
2021/06/05 12:24:59;;;;;;;16.50;12.32;;;;;;;;;;5048617;28;38138;-78
2021/06/05 12:27:28;;;;;;;15.48;11.27;;;;;;;;;;5055202;27;37709;-78
2021/06/05 12:30:05;;;;;;;16.10;12.48;;;;;;;;;;5064861;28;37501;-77
2021/06/05 12:32:32;;;;;;;18.38;12.95;;;;;;;;;;5068081;27;48719;-77
2021/06/05 12:34:58;;;;;;;16.23;10.00;;;;;;;;;;5066361;28;36985;-77
2021/06/05 12:37:31;;;;;;;20.00;13.45;;;;;;;;;;5065531;27;37787;-77
2021/06/05 12:39:58;;;;;;;19.83;14.55;;;;;;;;;;5066890;28;37376;-79
2021/06/05 12:42:29;;;;;;;16.70;12.75;;;;;;;;;;5066647;27;38146;-78
2021/06/05 12:44:57;;;;;;;17.75;11.90;;;;;;;;;;5059184;27;37444;-78
2021/06/05 12:47:32;;;;;;;14.18;11.25;;;;;;;;;;5063415;27;38987;-79
2021/06/05 12:49:59;;;;;;;14.18;10.57;;;;;;;;;;5066903;28;37537;-78
2021/06/05 12:52:28;;;;;;;13.63;9.77;;;;;;;;;;5067273;27;39100;-78
2021/06/05 12:55:11;;;;;;;17.67;12.20;;;;;;;;;;5067291;27;37574;-77
2021/06/05 12:57:39;;;;;;;21.73;13.73;;;;;;;;;;5056405;28;47711;-78
2021/06/05 13:00:16;;;;;;;16.38;12.52;;;;;;;;;;5066014;27;40363;-78
2021/06/05 13:02:43;;;;;;;15.85;12.45;;;;;;;;;;5036462;28;47772;-79
2021/06/05 13:05:24;;;;;;;20.85;13.73;;;;;;;;;;5045321;28;35691;-77
2021/06/05 13:07:51;;;;;;;19.25;13.25;;;;;;;;;;5046986;28;39460;-79
2021/06/05 13:10:37;;;;;;;17.05;13.20;;;;;;;;;;5046149;28;39555;-79
2021/06/05 13:13:09;;;;;;;19.80;13.38;;;;;;;;;;5045580;28;38982;-79
2021/06/05 13:15:43;;;;;;;19.83;13.98;;;;;;;;;;5044664;28;37508;-77
2021/06/05 13:18:10;;;;;;;19.88;13.90;;;;;;;;;;5046482;28;39994;-80
2021/06/05 13:20:47;;;;;;;19.60;13.40;;;;;;;;;;5047081;28;38303;-78
2021/06/05 13:23:28;;;;;;;18.15;13.45;;;;;;;;;;5045598;28;38506;-76
2021/06/05 13:25:56;;;;;;;15.90;12.07;;;;;;;;;;5047807;28;37059;-77
2021/06/05 13:28:25;;;;;;;15.90;11.30;;;;;;;;;;5047842;28;39726;-78
2021/06/05 13:30:53;;;;;;;17.40;11.73;;;;;;;;;;5044494;28;39228;-78
2021/06/05 13:33:38;;;;;;;16.13;11.50;;;;;;;;;;5045023;28;38918;-78
2021/06/05 13:36:04;;;;;;;15.30;10.88;;;;;;;;;;5046178;28;36818;-79
2021/06/05 13:38:31;;;;;;;18.40;12.75;;;;;;;;;;5045505;28;40520;-80
2021/06/05 13:40:58;;;;;;;20.00;14.00;;;;;;;;;;5046975;28;38508;-77
2021/06/05 13:43:25;;;;;;;19.20;13.10;;;;;;;;;;5066766;27;38690;-77
2021/06/05 13:45:51;;;;;;;21.95;14.10;;;;;;;;;;5080295;27;37424;-77
2021/06/05 13:48:18;;;;;;;24.92;15.52;;;;;;;;;;5067415;27;38660;-77
2021/06/05 13:50:44;;;;;;;21.88;14.20;;;;;;;;;;5064127;28;39848;-77
2021/06/05 13:53:24;;;;;;;17.88;12.60;;;;;;;;;;5063553;27;38443;-78
2021/06/05 13:55:52;;;;;;;19.00;11.70;;;;;;;;;;5067121;27;36840;-79
2021/06/05 13:58:19;;;;;;;20.38;13.10;;;;;;;;;;5062055;28;39777;-78
2021/06/05 14:00:47;;;;;;;22.10;11.20;;;;;;;;;;5056733;27;38269;-77
2021/06/05 14:03:13;;;;;;;17.95;10.95;;;;;;;;;;5065652;27;39085;-77
2021/06/05 14:05:40;;;;;;;23.20;11.95;;;;;;;;;;5064554;28;38169;-76
2021/06/05 14:08:08;;;;;;;15.45;10.45;;;;;;;;;;5064753;28;40695;-76
2021/06/05 14:10:35;;;;;;;21.48;12.80;;;;;;;;;;5045434;28;38684;-76
2021/06/05 14:13:01;;;;;;;21.30;11.00;;;;;;;;;;5044156;28;40054;-79
2021/06/05 14:15:32;;;;;;;18.95;11.20;;;;;;;;;;5044326;28;47330;-78
2021/06/05 14:18:00;;;;;;;17.38;10.93;;;;;;;;;;5052277;28;40447;-78
2021/06/05 14:20:28;;;;;;;21.30;10.88;;;;;;;;;;5063365;27;38766;-78
2021/06/05 14:22:55;;;;;;;21.42;10.52;;;;;;;;;;5065588;28;38939;-78
2021/06/05 14:25:23;;;;;;;20.80;10.93;;;;;;;;;;5066027;27;37373;-78
2021/06/05 14:27:50;;;;;;;17.85;9.85;;;;;;;;;;5064908;28;40093;-79
2021/06/05 14:30:28;;;;;;;14.05;9.13;;;;;;;;;;5064649;27;39457;-79
2021/06/05 14:32:54;;;;;;;18.05;9.13;;;;;;;;;;5066711;27;39168;-78